Time;durP1;ratioP1;P1;durP2;ratioP2;P2;SDS_P1;SDS_P2;PMS_P1;PMS_P2;Temp;Humidity;BMP_temperature;BMP_pressure;BME280_temperature;BME280_humidity;BME280_pressure;Samples;Min_cycle;Max_cycle;Signal;HPM_P1;HPM_P2
2022/11/19 00:01:59;;;;;;;;;;;19.40;57.50;;;;;;5071704;28;19924;-59
2022/11/19 00:04:25;;;;;;;;;;;19.40;57.50;;;;;;5072440;28;19924;-59
2022/11/19 00:06:51;;;;;;;;;;;19.30;57.50;;;;;;5072715;28;20011;-59
2022/11/19 00:09:17;;;;;;;;;;;19.30;57.50;;;;;;5071418;28;19925;-59
2022/11/19 00:14:27;;;;;;;;;;;19.30;57.40;;;;;;5072411;28;20375;-60
2022/11/19 00:16:52;;;;;;;;;;;19.30;57.30;;;;;;5071660;28;19925;-60
2022/11/19 00:19:18;;;;;;;;;;;19.30;57.40;;;;;;5072522;28;19931;-59
2022/11/19 00:21:43;;;;;;;;;;;19.30;57.50;;;;;;5071465;28;20371;-59
2022/11/19 00:24:09;;;;;;;;;;;19.30;57.40;;;;;;5072019;28;19972;-59
2022/11/19 00:26:35;;;;;;;;;;;19.20;57.40;;;;;;5072158;28;19925;-60
2022/11/19 00:29:00;;;;;;;;;;;19.20;57.40;;;;;;5071132;28;20380;-59
2022/11/19 00:31:26;;;;;;;;;;;19.20;57.40;;;;;;5072461;28;19932;-59
2022/11/19 00:33:53;;;;;;;;;;;19.20;57.20;;;;;;5072440;28;20353;-59
2022/11/19 00:36:18;;;;;;;;;;;19.20;57.20;;;;;;5071532;28;19948;-59
2022/11/19 00:38:44;;;;;;;;;;;19.20;57.00;;;;;;5072362;28;20375;-60
2022/11/19 00:41:09;;;;;;;;;;;19.20;57.10;;;;;;5072158;28;19931;-60
2022/11/19 00:43:47;;;;;;;;;;;19.20;57.10;;;;;;5071329;28;20061;-60
2022/11/19 00:46:22;;;;;;;;;;;19.20;57.00;;;;;;5072066;28;20426;-60
2022/11/19 00:48:48;;;;;;;;;;;19.10;57.00;;;;;;5074676;28;19931;-60
2022/11/19 00:51:14;;;;;;;;;;;19.10;56.90;;;;;;5074975;28;19925;-60
2022/11/19 00:53:39;;;;;;;;;;;19.10;56.90;;;;;;5075777;28;20404;-60
2022/11/19 00:56:06;;;;;;;;;;;19.10;56.90;;;;;;5075334;28;19924;-60
2022/11/19 00:58:31;;;;;;;;;;;19.10;57.00;;;;;;5075066;28;20126;-60
2022/11/19 01:00:57;;;;;;;;;;;19.10;56.90;;;;;;5075147;28;20023;-60
2022/11/19 01:03:23;;;;;;;;;;;19.10;56.90;;;;;;5075754;28;19926;-60
2022/11/19 01:05:48;;;;;;;;;;;19.00;56.80;;;;;;5074587;28;19928;-59
2022/11/19 01:08:14;;;;;;;;;;;19.00;56.80;;;;;;5075354;28;19935;-60
2022/11/19 01:10:39;;;;;;;;;;;19.00;56.80;;;;;;5075488;28;19924;-60
2022/11/19 01:15:49;;;;;;;;;;;19.00;56.70;;;;;;5075101;28;19924;-59
2022/11/19 01:18:15;;;;;;;;;;;19.00;56.70;;;;;;5074308;28;19920;-60
2022/11/19 01:20:40;;;;;;;;;;;19.00;56.70;;;;;;5075647;28;19925;-59
2022/11/19 01:23:06;;;;;;;;;;;19.00;56.60;;;;;;5075034;28;19921;-59
2022/11/19 01:25:31;;;;;;;;;;;19.00;56.60;;;;;;5074296;28;20410;-59
2022/11/19 01:27:57;;;;;;;;;;;19.00;56.70;;;;;;5074675;28;19924;-60
2022/11/19 01:30:22;;;;;;;;;;;19.00;56.50;;;;;;5074964;28;19924;-59
2022/11/19 01:32:48;;;;;;;;;;;19.00;56.50;;;;;;5074185;28;19970;-60
2022/11/19 01:35:13;;;;;;;;;;;18.90;56.50;;;;;;5074945;28;19931;-59
2022/11/19 01:37:39;;;;;;;;;;;18.90;56.40;;;;;;5074658;28;19970;-59
2022/11/19 01:40:05;;;;;;;;;;;18.90;56.40;;;;;;5073836;28;19925;-59
2022/11/19 01:42:49;;;;;;;;;;;18.90;56.40;;;;;;5075047;28;19924;-59
2022/11/19 01:45:17;;;;;;;;;;;18.90;56.40;;;;;;5074367;28;19968;-59
2022/11/19 01:47:43;;;;;;;;;;;18.90;56.40;;;;;;5073951;28;19928;-59
2022/11/19 01:50:08;;;;;;;;;;;18.90;56.30;;;;;;5074446;28;20509;-59
2022/11/19 01:52:33;;;;;;;;;;;18.90;56.40;;;;;;5090471;28;19924;-59
2022/11/19 01:55:00;;;;;;;;;;;18.90;56.30;;;;;;5073853;28;19960;-59
2022/11/19 01:57:26;;;;;;;;;;;18.90;56.10;;;;;;5090190;28;20375;-58
2022/11/19 01:59:51;;;;;;;;;;;18.90;56.20;;;;;;5073837;28;19967;-59
2022/11/19 02:02:18;;;;;;;;;;;18.90;56.30;;;;;;5073480;28;19924;-59
2022/11/19 02:04:44;;;;;;;;;;;18.90;56.10;;;;;;5090261;28;19924;-59
2022/11/19 02:07:09;;;;;;;;;;;18.90;56.10;;;;;;5073534;28;20399;-59
2022/11/19 02:09:35;;;;;;;;;;;18.90;56.10;;;;;;5089781;28;19931;-59
2022/11/19 02:12:00;;;;;;;;;;;18.90;56.10;;;;;;5089075;28;19925;-59
2022/11/19 02:14:44;;;;;;;;;;;18.90;56.00;;;;;;5073457;28;19928;-59
2022/11/19 02:17:12;;;;;;;;;;;18.90;56.10;;;;;;5073706;28;20335;-59
2022/11/19 02:19:51;;;;;;;;;;;18.90;56.00;;;;;;5074287;28;19924;-59
2022/11/19 02:22:22;;;;;;;;;;;18.90;55.90;;;;;;5088595;28;19931;-59
2022/11/19 02:24:55;;;;;;;;;;;18.90;56.00;;;;;;5074203;28;19932;-59
2022/11/19 02:27:42;;;;;;;;;;;18.90;56.10;;;;;;5089680;28;19924;-58
2022/11/19 02:30:12;;;;;;;;;;;18.90;56.10;;;;;;5088199;28;19931;-59
2022/11/19 02:32:39;;;;;;;;;;;18.90;56.00;;;;;;5073727;28;19924;-59
2022/11/19 02:35:07;;;;;;;;;;;18.90;56.10;;;;;;5071009;28;19925;-59
2022/11/19 02:37:39;;;;;;;;;;;18.90;56.00;;;;;;5089201;28;19932;-59
2022/11/19 02:40:08;;;;;;;;;;;18.90;56.00;;;;;;5073889;28;19925;-60
2022/11/19 02:42:53;;;;;;;;;;;18.90;55.90;;;;;;5073274;28;20002;-59
2022/11/19 02:45:29;;;;;;;;;;;19.00;56.00;;;;;;5052201;28;19925;-59
2022/11/19 02:47:59;;;;;;;;;;;19.00;55.80;;;;;;5089564;28;19931;-59
2022/11/19 02:50:32;;;;;;;;;;;18.90;55.80;;;;;;5088732;28;20493;-59
2022/11/19 02:52:57;;;;;;;;;;;18.90;55.70;;;;;;5089267;28;19924;-59
2022/11/19 02:55:23;;;;;;;;;;;18.90;55.70;;;;;;5089576;28;19931;-59
2022/11/19 02:57:54;;;;;;;;;;;18.90;55.70;;;;;;5055258;28;20348;-59
2022/11/19 03:05:54;;;;;;;;;;;18.90;55.60;;;;;;5033224;28;19929;-60
2022/11/19 03:08:20;;;;;;;;;;;18.90;55.60;;;;;;5033431;28;19925;-59
2022/11/19 03:10:48;;;;;;;;;;;18.90;55.60;;;;;;5048340;28;19982;-60
2022/11/19 03:18:44;;;;;;;;;;;18.90;55.60;;;;;;5045872;28;19929;-59
2022/11/19 03:21:15;;;;;;;;;;;18.90;55.60;;;;;;5048598;28;20008;-59
2022/11/19 03:23:46;;;;;;;;;;;18.90;55.50;;;;;;5049116;28;19925;-59
2022/11/19 03:26:16;;;;;;;;;;;18.90;55.60;;;;;;5032126;28;19979;-59
2022/11/19 03:28:42;;;;;;;;;;;18.90;55.40;;;;;;5048406;28;20308;-59
2022/11/19 03:31:07;;;;;;;;;;;18.90;55.50;;;;;;5048241;28;20380;-59
2022/11/19 03:33:34;;;;;;;;;;;18.90;55.40;;;;;;5047824;28;20027;-59
2022/11/19 03:36:02;;;;;;;;;;;18.90;55.40;;;;;;5048336;28;20061;-59
2022/11/19 03:38:33;;;;;;;;;;;18.90;55.40;;;;;;5048562;28;19925;-59
2022/11/19 03:40:58;;;;;;;;;;;19.00;55.40;;;;;;5048391;28;19925;-59
2022/11/19 03:43:25;;;;;;;;;;;19.00;55.30;;;;;;5048784;28;19925;-59
2022/11/19 03:45:51;;;;;;;;;;;18.90;55.40;;;;;;5047370;28;19925;-59
2022/11/19 03:48:16;;;;;;;;;;;19.00;55.40;;;;;;5048414;28;20304;-59
2022/11/19 03:50:53;;;;;;;;;;;18.90;55.40;;;;;;5048690;28;19929;-59
2022/11/19 03:53:18;;;;;;;;;;;19.00;55.40;;;;;;5047775;28;19925;-59
2022/11/19 03:56:00;;;;;;;;;;;19.00;55.30;;;;;;5032949;28;19979;-59
2022/11/19 03:58:26;;;;;;;;;;;19.00;55.40;;;;;;5048302;28;19929;-59
2022/11/19 04:00:52;;;;;;;;;;;19.00;55.30;;;;;;5032321;28;19948;-59
2022/11/19 04:03:17;;;;;;;;;;;19.00;55.20;;;;;;5033032;28;19925;-59
2022/11/19 04:05:43;;;;;;;;;;;19.00;55.20;;;;;;5032805;28;20020;-59
2022/11/19 04:08:08;;;;;;;;;;;19.00;55.30;;;;;;5032018;28;20439;-59
2022/11/19 04:10:34;;;;;;;;;;;19.00;55.30;;;;;;5032705;28;19925;-59
2022/11/19 04:12:59;;;;;;;;;;;19.00;55.20;;;;;;5032585;28;20285;-59
2022/11/19 04:15:24;;;;;;;;;;;19.10;55.30;;;;;;5032180;28;20300;-59
2022/11/19 04:17:50;;;;;;;;;;;19.00;55.10;;;;;;5032727;28;19921;-59
2022/11/19 04:20:15;;;;;;;;;;;19.00;55.10;;;;;;5032442;28;19969;-58
2022/11/19 04:22:41;;;;;;;;;;;19.10;55.10;;;;;;5032750;28;19926;-59
2022/11/19 04:25:07;;;;;;;;;;;19.10;55.80;;;;;;5036460;28;20011;-59
2022/11/19 04:27:32;;;;;;;;;;;19.10;55.00;;;;;;5036419;28;20016;-58
2022/11/19 04:29:58;;;;;;;;;;;19.10;55.00;;;;;;5035655;28;20004;-59
2022/11/19 04:32:23;;;;;;;;;;;19.10;55.00;;;;;;5036757;28;19925;-59
2022/11/19 04:34:49;;;;;;;;;;;19.10;55.00;;;;;;5035869;28;19929;-59
2022/11/19 04:37:14;;;;;;;;;;;19.10;55.00;;;;;;5036306;28;20071;-59
2022/11/19 04:39:40;;;;;;;;;;;19.10;55.00;;;;;;5036433;28;19925;-59
2022/11/19 04:42:05;;;;;;;;;;;19.10;55.60;;;;;;5035575;28;20047;-59
2022/11/19 04:44:31;;;;;;;;;;;19.20;55.00;;;;;;5036523;28;19921;-59
2022/11/19 04:46:57;;;;;;;;;;;19.20;55.00;;;;;;5036183;28;19932;-59
2022/11/19 04:49:22;;;;;;;;;;;19.20;55.60;;;;;;5035715;28;19925;-59
2022/11/19 04:51:48;;;;;;;;;;;19.20;54.90;;;;;;5036465;28;19932;-59
2022/11/19 04:54:14;;;;;;;;;;;19.20;54.90;;;;;;5037053;28;19947;-59
2022/11/19 04:56:39;;;;;;;;;;;19.20;54.80;;;;;;5035939;28;20015;-59
2022/11/19 04:59:05;;;;;;;;;;;19.20;54.90;;;;;;5036654;28;20261;-59
2022/11/19 05:01:30;;;;;;;;;;;19.20;54.70;;;;;;5047778;28;19987;-59
2022/11/19 05:03:56;;;;;;;;;;;19.30;54.70;;;;;;5048239;28;19986;-59
2022/11/19 05:06:21;;;;;;;;;;;19.30;54.60;;;;;;5055176;28;19925;-59
2022/11/19 05:08:46;;;;;;;;;;;19.30;54.70;;;;;;5055288;28;19952;-59
2022/11/19 05:11:12;;;;;;;;;;;19.30;54.60;;;;;;5054967;28;19932;-59
2022/11/19 05:13:37;;;;;;;;;;;19.30;54.60;;;;;;5055483;28;19932;-59
2022/11/19 05:16:03;;;;;;;;;;;19.30;54.50;;;;;;5055753;28;19936;-59
2022/11/19 05:18:28;;;;;;;;;;;19.30;54.50;;;;;;5054749;28;19932;-59
2022/11/19 05:20:54;;;;;;;;;;;19.30;54.60;;;;;;5055602;28;20019;-59
2022/11/19 05:23:19;;;;;;;;;;;19.30;54.40;;;;;;5055542;28;19932;-59
2022/11/19 05:25:45;;;;;;;;;;;19.30;54.50;;;;;;5054297;28;19925;-59
2022/11/19 05:28:11;;;;;;;;;;;19.40;54.40;;;;;;5055716;28;19978;-59
2022/11/19 05:30:36;;;;;;;;;;;19.40;54.50;;;;;;5055280;28;19931;-59
2022/11/19 05:33:01;;;;;;;;;;;19.40;54.40;;;;;;5054606;28;19932;-59
2022/11/19 05:35:27;;;;;;;;;;;19.40;54.50;;;;;;5054171;28;19964;-59
2022/11/19 05:37:52;;;;;;;;;;;19.40;54.40;;;;;;5055467;28;19933;-59
2022/11/19 05:40:18;;;;;;;;;;;19.40;54.50;;;;;;5054459;28;20285;-59
2022/11/19 05:42:43;;;;;;;;;;;19.40;54.40;;;;;;5054740;28;19925;-59
2022/11/19 05:45:09;;;;;;;;;;;19.40;54.30;;;;;;5054434;28;19924;-59
2022/11/19 05:47:35;;;;;;;;;;;19.40;54.30;;;;;;5054956;28;19924;-59
2022/11/19 05:50:01;;;;;;;;;;;19.40;54.30;;;;;;5055361;28;20012;-59
2022/11/19 05:52:26;;;;;;;;;;;19.40;54.30;;;;;;5054079;28;20385;-60
2022/11/19 05:54:52;;;;;;;;;;;19.40;54.30;;;;;;5054926;28;20073;-59
2022/11/19 05:57:17;;;;;;;;;;;19.40;54.30;;;;;;5055017;28;19929;-59
2022/11/19 05:59:43;;;;;;;;;;;19.40;54.20;;;;;;5053923;28;19929;-59
2022/11/19 06:02:08;;;;;;;;;;;19.50;54.30;;;;;;5054786;28;19931;-59
2022/11/19 06:04:34;;;;;;;;;;;19.50;54.30;;;;;;5054729;28;19948;-59
2022/11/19 06:06:59;;;;;;;;;;;19.50;54.20;;;;;;5054174;28;19986;-59
2022/11/19 06:09:25;;;;;;;;;;;19.50;54.20;;;;;;5054774;28;20361;-59
2022/11/19 06:11:50;;;;;;;;;;;19.50;54.20;;;;;;5054464;28;19928;-59
2022/11/19 06:14:22;;;;;;;;;;;19.50;54.10;;;;;;5053596;28;19925;-59
2022/11/19 06:16:51;;;;;;;;;;;19.50;54.20;;;;;;5054349;28;19925;-59
2022/11/19 06:19:19;;;;;;;;;;;19.50;54.10;;;;;;5054515;28;19932;-59
2022/11/19 06:21:45;;;;;;;;;;;19.50;54.00;;;;;;5053312;28;19924;-59
2022/11/19 06:24:11;;;;;;;;;;;19.50;54.10;;;;;;5054502;28;20074;-59
2022/11/19 06:26:37;;;;;;;;;;;19.50;54.00;;;;;;5053907;28;20427;-59
2022/11/19 06:29:02;;;;;;;;;;;19.50;54.00;;;;;;5053787;28;20011;-59
2022/11/19 06:31:28;;;;;;;;;;;19.50;54.00;;;;;;5054076;28;19925;-59
2022/11/19 06:33:53;;;;;;;;;;;19.50;53.90;;;;;;5054159;28;19929;-59
2022/11/19 06:36:19;;;;;;;;;;;19.50;53.90;;;;;;5053365;28;19979;-59
2022/11/19 06:38:44;;;;;;;;;;;19.50;54.00;;;;;;5053846;28;20295;-59
2022/11/19 06:41:10;;;;;;;;;;;19.60;54.00;;;;;;5054341;28;20372;-59
2022/11/19 06:43:35;;;;;;;;;;;19.60;53.90;;;;;;5053131;28;19925;-59
2022/11/19 06:46:01;;;;;;;;;;;19.60;54.50;;;;;;5053857;28;19940;-59
2022/11/19 06:48:26;;;;;;;;;;;19.60;53.90;;;;;;5053153;28;19924;-59
2022/11/19 06:50:52;;;;;;;;;;;19.60;53.90;;;;;;5053996;28;19925;-59
2022/11/19 06:53:17;;;;;;;;;;;19.60;53.80;;;;;;5053658;28;19925;-59
2022/11/19 06:55:43;;;;;;;;;;;19.60;53.80;;;;;;5052704;28;19976;-61
2022/11/19 06:58:08;;;;;;;;;;;19.60;53.80;;;;;;5053971;28;20376;-59
2022/11/19 07:00:34;;;;;;;;;;;19.60;53.80;;;;;;5053405;28;19977;-60
2022/11/19 07:02:59;;;;;;;;;;;19.70;54.50;;;;;;5051975;28;19924;-60
2022/11/19 07:05:25;;;;;;;;;;;19.60;53.80;;;;;;5053349;28;20287;-60
2022/11/19 07:07:50;;;;;;;;;;;19.60;53.80;;;;;;5053170;28;19925;-60
2022/11/19 07:10:16;;;;;;;;;;;19.60;53.60;;;;;;5052914;28;19924;-60
2022/11/19 07:12:41;;;;;;;;;;;19.60;53.60;;;;;;5064804;28;20033;-60
2022/11/19 07:15:07;;;;;;;;;;;19.70;53.70;;;;;;5073465;28;19925;-60
2022/11/19 07:17:32;;;;;;;;;;;19.70;53.80;;;;;;5087967;28;19920;-60
2022/11/19 07:19:58;;;;;;;;;;;19.70;53.80;;;;;;5073354;28;19925;-61
2022/11/19 07:22:23;;;;;;;;;;;19.70;53.80;;;;;;5073422;28;20016;-60
2022/11/19 07:24:49;;;;;;;;;;;19.70;53.80;;;;;;5072194;28;20337;-60
2022/11/19 07:27:14;;;;;;;;;;;19.70;53.80;;;;;;5073057;28;19978;-60
2022/11/19 07:29:40;;;;;;;;;;;19.70;53.90;;;;;;5072896;28;19930;-60
2022/11/19 07:32:05;;;;;;;;;;;19.70;53.90;;;;;;5071393;28;20027;-60
2022/11/19 07:34:31;;;;;;;;;;;19.70;54.00;;;;;;5052749;28;19978;-62
2022/11/19 07:36:56;;;;;;;;;;;19.70;54.20;;;;;;5052888;28;19956;-60
2022/11/19 07:39:22;;;;;;;;;;;19.70;54.30;;;;;;5052524;28;19939;-60
2022/11/19 07:44:32;;;;;;;;;;;19.80;54.50;;;;;;5052721;28;19921;-62
2022/11/19 07:46:57;;;;;;;;;;;19.80;54.60;;;;;;5052362;28;20334;-62
2022/11/19 07:49:23;;;;;;;;;;;19.80;54.80;;;;;;5052674;28;19931;-61
2022/11/19 07:51:49;;;;;;;;;;;19.80;54.80;;;;;;5033861;28;20339;-61
2022/11/19 07:54:15;;;;;;;;;;;19.80;54.80;;;;;;5053165;28;19924;-61
2022/11/19 07:56:40;;;;;;;;;;;19.80;54.90;;;;;;5052181;28;19925;-61
2022/11/19 07:59:06;;;;;;;;;;;19.80;55.00;;;;;;5051891;28;19924;-61
2022/11/19 08:01:31;;;;;;;;;;;19.80;55.10;;;;;;5052398;28;20292;-61
2022/11/19 08:03:57;;;;;;;;;;;19.80;55.00;;;;;;5052937;28;19925;-61
2022/11/19 08:06:23;;;;;;;;;;;19.80;55.00;;;;;;5051831;28;20027;-60
2022/11/19 08:08:48;;;;;;;;;;;19.90;55.00;;;;;;5052649;28;19947;-61
2022/11/19 08:11:14;;;;;;;;;;;19.80;55.00;;;;;;5052896;28;20364;-61
2022/11/19 08:13:39;;;;;;;;;;;19.90;55.00;;;;;;5051470;28;19925;-61
2022/11/19 08:16:09;;;;;;;;;;;19.90;55.00;;;;;;5052842;28;20411;-63
2022/11/19 08:18:34;;;;;;;;;;;19.90;55.00;;;;;;5052532;28;19934;-60
2022/11/19 08:21:03;;;;;;;;;;;19.90;54.90;;;;;;5051443;28;19924;-61
2022/11/19 08:23:29;;;;;;;;;;;19.90;55.00;;;;;;5052088;28;19932;-61
2022/11/19 08:25:54;;;;;;;;;;;19.90;55.10;;;;;;5052526;28;19925;-61
2022/11/19 08:28:19;;;;;;;;;;;20.00;55.20;;;;;;5051993;28;19925;-61
2022/11/19 08:30:45;;;;;;;;;;;20.00;55.00;;;;;;5063896;28;19978;-61
2022/11/19 08:33:11;;;;;;;;;;;19.90;55.10;;;;;;5072420;28;19924;-61
2022/11/19 08:35:36;;;;;;;;;;;20.00;55.20;;;;;;5071687;28;20383;-61
2022/11/19 08:38:02;;;;;;;;;;;19.90;55.10;;;;;;5072800;28;20364;-61
2022/11/19 08:40:27;;;;;;;;;;;20.00;55.20;;;;;;5072428;28;19935;-61
2022/11/19 08:42:58;;;;;;;;;;;20.00;55.10;;;;;;5067902;28;19928;-60
2022/11/19 08:45:30;;;;;;;;;;;20.00;55.00;;;;;;5047968;28;19983;-60
2022/11/19 08:47:55;;;;;;;;;;;20.00;55.10;;;;;;5040294;28;19925;-60
2022/11/19 08:50:21;;;;;;;;;;;20.10;55.20;;;;;;5044885;28;22128;-60
2022/11/19 08:52:52;;;;;;;;;;;20.10;55.20;;;;;;5038807;28;19936;-62
2022/11/19 08:55:17;;;;;;;;;;;20.10;55.00;;;;;;5049847;28;20818;-62
2022/11/19 08:57:43;;;;;;;;;;;20.10;54.70;;;;;;5051536;28;20019;-62
2022/11/19 09:00:09;;;;;;;;;;;20.10;54.60;;;;;;5051979;28;20011;-61
2022/11/19 09:02:34;;;;;;;;;;;20.20;54.60;;;;;;5050891;28;19925;-61
2022/11/19 09:05:00;;;;;;;;;;;20.10;54.50;;;;;;5051392;28;20058;-60
2022/11/19 09:07:25;;;;;;;;;;;20.20;54.40;;;;;;5051981;28;19964;-61
2022/11/19 09:09:50;;;;;;;;;;;20.20;54.30;;;;;;5035207;28;20372;-61
2022/11/19 09:12:16;;;;;;;;;;;20.20;54.30;;;;;;5055468;28;19924;-61
2022/11/19 09:14:41;;;;;;;;;;;20.20;54.10;;;;;;5054016;28;20413;-61
2022/11/19 09:17:07;;;;;;;;;;;20.30;54.20;;;;;;5060364;28;19928;-60
2022/11/19 09:19:32;;;;;;;;;;;20.20;54.20;;;;;;5071426;28;20347;-62
2022/11/19 09:21:58;;;;;;;;;;;20.30;54.10;;;;;;5067394;28;19995;-61
2022/11/19 09:24:23;;;;;;;;;;;20.30;54.10;;;;;;5070411;28;20356;-61
2022/11/19 09:26:49;;;;;;;;;;;20.30;54.10;;;;;;5060789;28;19924;-62
2022/11/19 09:29:14;;;;;;;;;;;20.20;53.80;;;;;;5067853;28;19932;-62
2022/11/19 09:31:40;;;;;;;;;;;20.20;54.00;;;;;;5073098;28;19928;-60
2022/11/19 09:34:05;;;;;;;;;;;20.20;54.40;;;;;;5046513;28;19924;-61
2022/11/19 09:36:31;;;;;;;;;;;20.20;54.10;;;;;;5049809;28;20407;-62
2022/11/19 09:38:56;;;;;;;;;;;20.20;53.70;;;;;;5053044;28;19932;-61
2022/11/19 09:41:28;;;;;;;;;;;20.20;53.90;;;;;;5037049;28;20023;-62
2022/11/19 09:43:56;;;;;;;;;;;20.10;53.50;;;;;;5055231;28;19936;-61
2022/11/19 09:46:21;;;;;;;;;;;20.10;53.60;;;;;;5054478;28;20007;-61
2022/11/19 09:48:47;;;;;;;;;;;20.10;53.60;;;;;;5055088;28;19979;-62
2022/11/19 09:51:13;;;;;;;;;;;20.20;53.70;;;;;;5054980;28;19932;-62
2022/11/19 09:53:47;;;;;;;;;;;20.10;53.50;;;;;;5036400;28;20066;-61
2022/11/19 09:56:14;;;;;;;;;;;20.10;53.70;;;;;;5054880;28;20296;-61
2022/11/19 09:58:44;;;;;;;;;;;20.10;53.70;;;;;;5036244;28;19925;-61
2022/11/19 10:01:16;;;;;;;;;;;20.10;53.60;;;;;;5054888;28;19932;-61
2022/11/19 10:03:46;;;;;;;;;;;20.00;53.50;;;;;;5054656;28;20384;-61
2022/11/19 10:06:14;;;;;;;;;;;20.10;53.50;;;;;;5031489;28;19925;-62
2022/11/19 10:08:43;;;;;;;;;;;20.10;53.60;;;;;;5054363;28;19924;-62
2022/11/19 10:11:14;;;;;;;;;;;20.00;53.60;;;;;;5054187;28;19924;-62
2022/11/19 10:13:52;;;;;;;;;;;20.00;53.50;;;;;;5053237;28;19932;-62
2022/11/19 10:16:26;;;;;;;;;;;20.00;53.50;;;;;;5036847;28;20457;-62
2022/11/19 10:19:01;;;;;;;;;;;20.00;53.40;;;;;;5054653;28;19921;-62
2022/11/19 10:21:29;;;;;;;;;;;20.00;53.50;;;;;;5035176;28;19931;-62
2022/11/19 10:23:59;;;;;;;;;;;20.00;53.50;;;;;;5036844;28;20375;-62
2022/11/19 10:26:34;;;;;;;;;;;20.00;53.50;;;;;;5054019;28;19972;-62
2022/11/19 10:29:00;;;;;;;;;;;20.00;53.50;;;;;;5054717;28;19929;-61
2022/11/19 10:31:25;;;;;;;;;;;19.90;53.20;;;;;;5054278;28;19925;-61
2022/11/19 10:34:08;;;;;;;;;;;19.90;52.80;;;;;;5053091;28;19932;-62
2022/11/19 10:36:46;;;;;;;;;;;19.90;52.90;;;;;;5053538;28;20226;-62
2022/11/19 10:39:13;;;;;;;;;;;19.80;53.00;;;;;;5054403;28;19931;-62
2022/11/19 10:41:39;;;;;;;;;;;19.80;52.90;;;;;;5035410;28;19931;-61
2022/11/19 10:44:09;;;;;;;;;;;19.80;53.00;;;;;;5054148;28;19925;-62
2022/11/19 10:46:35;;;;;;;;;;;19.80;53.00;;;;;;5035945;28;19974;-61
2022/11/19 10:49:01;;;;;;;;;;;19.80;53.00;;;;;;5035664;28;19929;-62
2022/11/19 10:51:31;;;;;;;;;;;19.80;53.20;;;;;;5036294;28;20276;-61
2022/11/19 10:53:57;;;;;;;;;;;19.70;53.20;;;;;;5036461;28;19925;-61
2022/11/19 10:56:23;;;;;;;;;;;19.70;53.20;;;;;;5053386;28;20019;-62
2022/11/19 10:58:51;;;;;;;;;;;19.70;53.10;;;;;;5053893;28;19925;-62
2022/11/19 11:01:24;;;;;;;;;;;19.70;53.00;;;;;;5036076;28;19924;-61
2022/11/19 11:04:09;;;;;;;;;;;19.70;53.00;;;;;;5034822;28;20015;-61
2022/11/19 11:06:53;;;;;;;;;;;19.70;53.00;;;;;;5053415;28;19928;-61
2022/11/19 11:09:27;;;;;;;;;;;19.70;53.10;;;;;;5053142;28;19925;-62
2022/11/19 11:14:52;;;;;;;;;;;19.60;53.30;;;;;;5053434;28;19924;-61
2022/11/19 11:17:24;;;;;;;;;;;19.60;53.30;;;;;;5036866;28;19931;-61
2022/11/19 11:20:08;;;;;;;;;;;19.60;54.00;;;;;;5053381;28;19925;-62
2022/11/19 11:22:34;;;;;;;;;;;19.60;53.30;;;;;;5053292;28;19929;-62
2022/11/19 11:24:59;;;;;;;;;;;19.60;53.20;;;;;;5034975;28;19924;-62
2022/11/19 11:27:29;;;;;;;;;;;19.60;53.20;;;;;;5035834;28;20364;-62
2022/11/19 11:30:05;;;;;;;;;;;19.60;53.30;;;;;;5052556;28;19944;-61
2022/11/19 11:32:30;;;;;;;;;;;19.60;53.10;;;;;;5051878;28;19929;-62
2022/11/19 11:34:56;;;;;;;;;;;19.60;53.00;;;;;;5035248;28;19931;-60
2022/11/19 11:37:22;;;;;;;;;;;19.60;53.10;;;;;;5067513;28;20014;-60
2022/11/19 11:39:52;;;;;;;;;;;19.60;53.10;;;;;;5088372;28;20286;-61
2022/11/19 11:42:18;;;;;;;;;;;19.60;53.20;;;;;;5073220;28;19932;-61
2022/11/19 11:44:51;;;;;;;;;;;19.70;53.20;;;;;;5072372;28;19925;-60
2022/11/19 11:47:17;;;;;;;;;;;19.70;53.20;;;;;;5088602;28;20287;-61
2022/11/19 11:49:43;;;;;;;;;;;19.70;53.10;;;;;;5088411;28;20015;-60
2022/11/19 11:52:18;;;;;;;;;;;19.70;53.00;;;;;;5072113;28;20345;-61
2022/11/19 11:54:55;;;;;;;;;;;19.70;52.50;;;;;;5072794;28;19936;-62
2022/11/19 11:57:21;;;;;;;;;;;19.70;52.60;;;;;;5072922;28;20289;-62
2022/11/19 11:59:47;;;;;;;;;;;19.80;52.80;;;;;;5072103;28;20006;-62
2022/11/19 12:02:31;;;;;;;;;;;19.80;53.10;;;;;;5073139;28;20338;-61
2022/11/19 12:05:05;;;;;;;;;;;19.80;53.20;;;;;;5072260;28;19932;-63
2022/11/19 12:07:30;;;;;;;;;;;19.80;53.30;;;;;;5066613;28;19933;-62
2022/11/19 12:10:02;;;;;;;;;;;19.80;53.40;;;;;;5061495;28;19948;-62
2022/11/19 12:12:27;;;;;;;;;;;19.80;53.40;;;;;;5071980;28;19924;-62
2022/11/19 12:14:53;;;;;;;;;;;19.90;53.40;;;;;;5072833;28;20035;-61
2022/11/19 12:17:27;;;;;;;;;;;19.90;53.40;;;;;;5072807;28;19931;-61
2022/11/19 12:20:11;;;;;;;;;;;19.90;53.20;;;;;;5072345;28;19924;-61
2022/11/19 12:22:57;;;;;;;;;;;19.90;53.10;;;;;;5054377;28;20438;-61
2022/11/19 12:25:23;;;;;;;;;;;19.90;53.10;;;;;;5085067;28;19929;-61
2022/11/19 12:27:51;;;;;;;;;;;19.90;53.10;;;;;;5051872;28;19931;-61
2022/11/19 12:30:18;;;;;;;;;;;19.90;53.10;;;;;;5052851;28;19920;-61
2022/11/19 12:32:44;;;;;;;;;;;19.90;53.00;;;;;;5084364;28;20015;-61
2022/11/19 12:35:09;;;;;;;;;;;19.90;53.00;;;;;;5051724;28;20024;-60
2022/11/19 12:37:41;;;;;;;;;;;19.90;53.00;;;;;;5052460;28;19925;-63
2022/11/19 12:40:06;;;;;;;;;;;20.00;53.10;;;;;;5052035;28;19924;-62
2022/11/19 12:42:38;;;;;;;;;;;20.00;53.00;;;;;;5052569;28;19933;-62
2022/11/19 12:45:12;;;;;;;;;;;20.00;53.10;;;;;;5055390;28;20291;-61
2022/11/19 12:47:44;;;;;;;;;;;20.00;52.90;;;;;;5055271;28;20032;-61
2022/11/19 12:50:24;;;;;;;;;;;20.00;52.80;;;;;;5056492;28;19925;-61
2022/11/19 12:52:49;;;;;;;;;;;20.00;52.90;;;;;;5055915;28;20292;-61
2022/11/19 12:55:17;;;;;;;;;;;20.00;52.70;;;;;;5055702;28;19925;-61
2022/11/19 12:57:49;;;;;;;;;;;20.00;52.80;;;;;;5056148;28;20034;-61
2022/11/19 13:00:19;;;;;;;;;;;20.00;52.80;;;;;;5056038;28;20300;-61
2022/11/19 13:03:02;;;;;;;;;;;20.00;52.70;;;;;;5055177;28;20398;-61
2022/11/19 13:05:30;;;;;;;;;;;20.00;52.70;;;;;;5055750;28;19972;-61
2022/11/19 13:08:17;;;;;;;;;;;20.00;52.60;;;;;;5055947;28;19920;-61
2022/11/19 13:10:47;;;;;;;;;;;20.00;52.70;;;;;;5088230;28;19925;-60
2022/11/19 13:13:13;;;;;;;;;;;20.10;52.80;;;;;;5056132;28;19924;-61
2022/11/19 13:15:39;;;;;;;;;;;20.10;52.80;;;;;;5054817;28;20338;-61
2022/11/19 13:18:08;;;;;;;;;;;20.00;52.60;;;;;;5055693;28;20380;-61
2022/11/19 13:20:43;;;;;;;;;;;20.10;53.00;;;;;;5087620;28;20288;-61
2022/11/19 13:23:11;;;;;;;;;;;20.10;52.70;;;;;;5055166;28;19960;-61
2022/11/19 13:25:38;;;;;;;;;;;20.10;52.60;;;;;;5078416;28;20408;-61
2022/11/19 13:28:04;;;;;;;;;;;20.10;52.20;;;;;;5078167;28;19925;-61
2022/11/19 13:30:32;;;;;;;;;;;20.10;52.30;;;;;;5043101;28;19921;-60
2022/11/19 13:32:59;;;;;;;;;;;20.20;52.20;;;;;;5044346;28;19945;-62
2022/11/19 13:35:30;;;;;;;;;;;20.10;52.10;;;;;;5045279;28;19936;-61
2022/11/19 13:37:58;;;;;;;;;;;20.20;52.10;;;;;;5044052;28;19978;-62
2022/11/19 13:40:29;;;;;;;;;;;20.20;52.70;;;;;;5043469;28;19929;-62
2022/11/19 13:45:39;;;;;;;;;;;20.20;52.10;;;;;;5042608;28;19925;-62
2022/11/19 13:48:24;;;;;;;;;;;20.30;52.20;;;;;;5039727;28;20246;-62
2022/11/19 13:50:50;;;;;;;;;;;20.30;52.20;;;;;;5034113;28;20373;-62
2022/11/19 13:53:28;;;;;;;;;;;20.30;52.30;;;;;;5035252;28;19932;-61
2022/11/19 13:55:54;;;;;;;;;;;20.30;52.20;;;;;;5032722;28;19925;-61
2022/11/19 13:58:24;;;;;;;;;;;20.30;52.10;;;;;;5046977;28;19931;-60
2022/11/19 14:01:13;;;;;;;;;;;20.30;52.40;;;;;;5069162;28;19925;-61
2022/11/19 14:03:38;;;;;;;;;;;20.30;52.50;;;;;;5053448;28;19932;-62
2022/11/19 14:06:07;;;;;;;;;;;20.40;52.80;;;;;;5054245;28;19929;-60
2022/11/19 14:08:47;;;;;;;;;;;20.40;52.90;;;;;;5054678;28;19952;-62
2022/11/19 14:11:17;;;;;;;;;;;20.40;52.90;;;;;;5055016;28;19925;-61
2022/11/19 14:13:42;;;;;;;;;;;20.40;53.10;;;;;;5053456;28;20062;-61
2022/11/19 14:27:21;;;;;;;;;;;20.50;53.30;;;;;;5053857;28;19939;-62
2022/11/19 14:29:47;;;;;;;;;;;20.50;53.40;;;;;;5053977;28;19932;-62
2022/11/19 14:32:12;;;;;;;;;;;20.50;53.50;;;;;;5054164;28;20019;-62
2022/11/19 14:34:45;;;;;;;;;;;20.50;53.40;;;;;;5053359;28;19924;-61
2022/11/19 14:37:21;;;;;;;;;;;20.60;53.40;;;;;;5054037;28;20031;-61
2022/11/19 14:39:49;;;;;;;;;;;20.50;53.10;;;;;;5052961;28;19936;-61
2022/11/19 14:42:14;;;;;;;;;;;20.50;53.20;;;;;;5086371;28;20380;-62
2022/11/19 14:44:40;;;;;;;;;;;20.50;53.20;;;;;;5054168;28;20015;-61
2022/11/19 14:47:21;;;;;;;;;;;20.50;53.20;;;;;;5053202;28;20372;-61
2022/11/19 14:49:47;;;;;;;;;;;20.50;53.20;;;;;;5053887;28;19967;-61
2022/11/19 14:52:18;;;;;;;;;;;20.50;53.30;;;;;;5053825;28;19925;-61
2022/11/19 14:54:44;;;;;;;;;;;20.50;53.20;;;;;;5052869;28;19929;-60
2022/11/19 14:57:12;;;;;;;;;;;20.50;53.30;;;;;;5086334;28;20326;-61